Saint Clairsville, Ohio
Current Conditions -  °F | °C
As of 8:53 AM on Friday 19 Dec 2014 (Local Time) from KHLG Reporting Station
Overcast Overcast  
Wind Chill: 20°   Ceiling: 1000
Heat Index: 27°   Visibility: 7mi
Dew Point: 23°   Wind: 6mph
Humidity: 85%   Direction: 240°WSW
Pressure: 30.21"   Gusts: NA
Location:  40.08°N, 80.9°W
Report Text: KHLG 191353Z 24005KT 7SM OVC010 M03/M05 A3021 RMK AO2 SLP249 T10281050
Loading
Personal Weather Stations






























Interactive Weather Map New forecast layout! Learn more

10-Day Weather Forecast

Advertisements
Track Severe Weather on mobile